RBL weather

Red Bluff Municipal Airport
Red Bluff, California, United States

Public forecast

Using degrees Fahrenheit for public forecast. Weather courtesy of forecast.io.

METAR (pilot weather report)

Retrieved 2019/08/25 20:54 UTC (22 minutes ago):

KRBL 252054Z AUTO 20006KT 10SM CLR 35/13 A2993 RMK AO2 SLP130 T03500128 58017

TAF (pilot weather forecast)

Retrieved 2019/08/25 18:33 UTC (3 hours ago):

TAF KRBL 251730Z 2518/2618 VRB03KT P6SM SKC FM252100 16013KT P6SM SKC FM260500 VRB04KT P6SM SKC